Etusivu
METAR-TAF:

METAR-TAF

Lentoasemat :

Tottori, Japani

Leveyspiiri: 35-32N, Pituuspiiri: 134-10E, korkeus merenpinnasta: 15 m

Tämänhetkinen sää

Tämä raportti tehtiin 57 minuuttia sitten, kello 04.00 UTC
Tuuli 19 kn lännestä/luoteesta
Lämpötila 16°C
Kosteus 59%
Ilmanpaine 1013 hPa
Näkyvyys: 8000 m
Muutamia pilviä 4000 ft:n korkeudessa

METAR: RJOR 260400Z 30019KT 8000 FEW040 16/08 Q1013

Aika: 13:57 (04:57 UTC)


TAF: puuttuu

Säähavainnot ja -ennusteet yli 4000 lentoasemalta (METAR- ja TAF-raportit).

Käytössä olevat sääasemat on merkitty karttaan keltaisilla ja punaisilla pisteillä.

Aseta hiiri pisteen päälle nähdäksesi sääaseman nimen.

Klikkaa sitten nähdäksesi säähavainnot ja -ennusteet.

Kartan vaihtaminen: klikkaa mustalla rastilla varustettuja vihreitä pisteitä, niin voit zoomata sisään; viivalla varustettua vihreää pistettä, niin voit zoomata ulos tai vihreitä nuolia, niin pääset viereisille kartoille.


METAR-TAF: